Terminal Aerodrome Forecast
Issued by NWS

Home | Current Version | Previous Version | Text Only | Print | Product List | Glossary On
Versions: 1 2 3 4 5 6 7 8 9 10 11 12 13
000
FTUS44 KJAN 281146
TAFHKS
TAF
KHKS 281146Z 2812/2912 17003KT 5SM BR SCT007 OVC025
     FM281500 19003KT P6SM BKN025
     FM281900 19005KT P6SM VCTS BKN050CB
     FM290000 14004KT P6SM SCT050 SCT250
     FM290800 15004KT 5SM BR BKN015=

USA.gov is the U.S. government's official web portal to all federal, state and local government web resources and services.